Map

Track Data

SID SEASON NUMBER BASIN SUBBASIN NAME ISO_TIME NATURE LAT LON WMO_WIND WMO_PRES WMO_AGENCY TRACK_TYPE DIST2LAND LANDFALL IFLAG USA_AGENCY USA_ATCF_ID USA_LAT USA_LON USA_RECORD USA_STATUS USA_WIND USA_PRES USA_SSHS USA_R34_NE USA_R34_SE USA_R34_SW USA_R34_NW USA_R50_NE USA_R50_SE USA_R50_SW USA_R50_NW USA_R64_NE USA_R64_SE USA_R64_SW USA_R64_NW USA_POCI USA_ROCI USA_RMW USA_EYE TOKYO_LAT TOKYO_LON TOKYO_GRADE TOKYO_WIND TOKYO_PRES TOKYO_R50_DIR TOKYO_R50_LONG TOKYO_R50_SHORT TOKYO_R30_DIR TOKYO_R30_LONG TOKYO_R30_SHORT TOKYO_LAND CMA_LAT CMA_LON CMA_CAT CMA_WIND CMA_PRES HKO_LAT HKO_LON HKO_CAT HKO_WIND HKO_PRES NEWDELHI_LAT NEWDELHI_LON NEWDELHI_GRADE NEWDELHI_WIND NEWDELHI_PRES NEWDELHI_CI NEWDELHI_DP NEWDELHI_POCI REUNION_LAT REUNION_LON REUNION_TYPE REUNION_WIND REUNION_PRES REUNION_TNUM REUNION_CI REUNION_RMW REUNION_R34_NE REUNION_R34_SE REUNION_R34_SW REUNION_R34_NW REUNION_R50_NE REUNION_R50_SE REUNION_R50_SW REUNION_R50_NW REUNION_R64_NE REUNION_R64_SE REUNION_R64_SW REUNION_R64_NW BOM_LAT BOM_LON BOM_TYPE BOM_WIND BOM_PRES BOM_TNUM BOM_CI BOM_RMW BOM_R34_NE BOM_R34_SE BOM_R34_SW BOM_R34_NW BOM_R50_NE BOM_R50_SE BOM_R50_SW BOM_R50_NW BOM_R64_NE BOM_R64_SE BOM_R64_SW BOM_R64_NW BOM_ROCI BOM_POCI BOM_EYE BOM_POS_METHOD BOM_PRES_METHOD NADI_LAT NADI_LON NADI_CAT NADI_WIND NADI_PRES WELLINGTON_LAT WELLINGTON_LON WELLINGTON_WIND WELLINGTON_PRES DS824_LAT DS824_LON DS824_STAGE DS824_WIND DS824_PRES TD9636_LAT TD9636_LON TD9636_STAGE TD9636_WIND TD9636_PRES TD9635_LAT TD9635_LON TD9635_WIND TD9635_PRES TD9635_ROCI NEUMANN_LAT NEUMANN_LON NEUMANN_CLASS NEUMANN_WIND NEUMANN_PRES MLC_LAT MLC_LON MLC_CLASS MLC_WIND MLC_PRES USA_GUST BOM_GUST BOM_GUST_PER REUNION_GUST REUNION_GUST_PER USA_SEAHGT USA_SEARAD_NE USA_SEARAD_SE USA_SEARAD_SW USA_SEARAD_NW STORM_SPEED STORM_DIR
1898227N18125 1898 29 WP MM NOT_NAMED 1898-08-15 04:00:00 NR 17.5000 125.200 main 292 263 __________O___ -1 17.5000 125.200 7 8 282
1898227N18125 1898 29 WP MM NOT_NAMED 1898-08-15 06:00:00 NR 17.5563 124.913 main 263 222 __________P___ -1 17.5563 124.913 7 9 282
1898227N18125 1898 29 WP MM NOT_NAMED 1898-08-15 09:00:00 NR 17.6442 124.470 main 222 175 __________P___ -1 17.6442 124.470 7 9 282
1898227N18125 1898 29 WP MM NOT_NAMED 1898-08-15 12:00:00 NR 17.7423 124.000 main 175 129 __________P___ -1 17.7423 124.000 7 10 283
1898227N18125 1898 29 WP MM NOT_NAMED 1898-08-15 15:00:00 NR 17.8570 123.485 main 134 114 __________P___ -1 17.8570 123.485 7 10 283
1898227N18125 1898 29 WP MM NOT_NAMED 1898-08-15 16:00:00 NR 17.9000 123.300 main 114 71 __________O___ -1 17.9000 123.300 3 11 284
1898227N18125 1898 29 WP MM NOT_NAMED 1898-08-15 18:00:00 NR 17.9936 122.909 main 71 10 __________P___ -1 17.9936 122.909 3 12 284
1898227N18125 1898 29 WP MM NOT_NAMED 1898-08-15 21:00:00 NR 18.1467 122.272 main 10 0 __________P___ -1 18.1467 122.272 3 13 284
1898227N18125 1898 29 WP MM NOT_NAMED 1898-08-16 00:00:00 NR 18.3042 121.583 main 0 0 __________P___ -1 18.3042 121.583 3 14 283
1898227N18125 1898 29 WP MM NOT_NAMED 1898-08-16 03:00:00 NR 18.4539 120.852 main 0 0 __________P___ -1 18.4539 120.852 3 14 282
1898227N18125 1898 29 WP MM NOT_NAMED 1898-08-16 04:00:00 NR 18.5000 120.600 main 11 11 __________O___ -1 18.5000 120.600 4 15 279
1898227N18125 1898 29 WP MM NOT_NAMED 1898-08-16 06:00:00 NR 18.5652 120.079 main 57 67 __________P___ -1 18.5652 120.079 4 15 277
1898227N18125 1898 29 WP MM NOT_NAMED 1898-08-16 09:00:00 NR 18.6501 119.265 main 141 151 __________P___ -1 18.6501 119.265 4 16 276
1898227N18125 1898 29 WP MM NOT_NAMED 1898-08-16 12:00:00 NR 18.7386 118.445 main 231 231 __________P___ -1 18.7386 118.445 4 15 278
1898227N18125 1898 29 WP MM NOT_NAMED 1898-08-16 15:00:00 NR 18.8525 117.652 main 308 318 __________P___ -1 18.8525 117.652 4 15 279
1898227N18125 1898 29 WP MM NOT_NAMED 1898-08-16 16:00:00 NR 18.9000 117.400 main 338 338 __________O___ -1 18.9000 117.400 4 14 283
1898227N18125 1898 29 WP MM NOT_NAMED 1898-08-16 18:00:00 NR 19.0071 116.937 main 391 391 __________P___ -1 19.0071 116.937 4 13 286
1898227N18125 1898 29 WP MM NOT_NAMED 1898-08-16 21:00:00 NR 19.1999 116.281 main 394 351 __________P___ -1 19.1999 116.281 4 13 289
1898227N18125 1898 29 WP MM NOT_NAMED 1898-08-17 00:00:00 NR 19.4314 115.649 main 351 299 __________P___ -1 19.4314 115.649 4 13 293
1898227N18125 1898 29 WP MM NOT_NAMED 1898-08-17 03:00:00 NR 19.7015 115.016 main 299 284 __________P___ -1 19.7015 115.016 4 13 295
1898227N18125 1898 29 WP MM NOT_NAMED 1898-08-17 04:00:00 NR 19.8000 114.800 main 284 251 __________O___ -1 19.8000 114.800 4 14 297
1898227N18125 1898 29 WP MM NOT_NAMED 1898-08-17 06:00:00 NR 20.0253 114.348 main 251 182 __________P___ -1 20.0253 114.348 4 15 299
1898227N18125 1898 29 WP MM NOT_NAMED 1898-08-17 09:00:00 NR 20.3955 113.657 main 182 119 __________P___ -1 20.3955 113.657 4 15 300
1898227N18125 1898 29 WP MM NOT_NAMED 1898-08-17 12:00:00 NR 20.7685 112.953 main 119 67 __________P___ -1 20.7685 112.953 4 15 298
1898227N18125 1898 29 WP MM NOT_NAMED 1898-08-17 15:00:00 NR 21.1037 112.240 main 67 49 __________P___ -1 21.1037 112.240 4 15 296
1898227N18125 1898 29 WP MM NOT_NAMED 1898-08-17 16:00:00 NR 21.2000 112.000 main 49 11 __________O___ -1 21.2000 112.000 4 14 291
1898227N18125 1898 29 WP MM NOT_NAMED 1898-08-17 18:00:00 NR 21.3637 111.520 main 11 0 __________P___ -1 21.3637 111.520 4 14 287
1898227N18125 1898 29 WP MM NOT_NAMED 1898-08-17 21:00:00 NR 21.5471 110.796 main 0 0 __________P___ -1 21.5471 110.796 4 14 283
1898227N18125 1898 29 WP MM NOT_NAMED 1898-08-18 00:00:00 NR 21.6756 110.070 main 0 0 __________P___ -1 21.6756 110.070 4 14 279
1898227N18125 1898 29 WP MM NOT_NAMED 1898-08-18 03:00:00 NR 21.7715 109.343 main 0 0 __________P___ -1 21.7715 109.343 4 14 278
1898227N18125 1898 29 WP MM NOT_NAMED 1898-08-18 04:00:00 NR 21.8000 109.100 main 0 __________O___ -1 21.8000 109.100 4 14 277

Digital Typhoon Data and Search

About IBTrACS Database

This database is a web-friendly format of International Best Track Archive for Climate Stewardship (IBTrACS), a global best track data archive curated by NOAA dating back to 1842.

Updated: 2021-12-03